createdAt,value
2019-05-07T00:02:18.511Z,94819.03
2019-05-07T00:04:47.115Z,94811.84
2019-05-07T00:07:15.733Z,94806.80
2019-05-07T00:09:44.317Z,94818.63
2019-05-07T00:12:12.965Z,94813.96
2019-05-07T00:14:42.903Z,94808.06
2019-05-07T00:17:13.044Z,94815.24
2019-05-07T00:19:43.250Z,94819.91
2019-05-07T00:22:12.545Z,94814.38
2019-05-07T00:24:42.651Z,94816.52
2019-05-07T00:27:13.101Z,94816.92
2019-05-07T00:29:42.952Z,94813.57
2019-05-07T00:32:12.271Z,94823.26
2019-05-07T00:34:42.666Z,94822.43
2019-05-07T00:37:22.228Z,94823.69
2019-05-07T00:40:08.398Z,94824.55
2019-05-07T00:42:54.686Z,94833.41
2019-05-07T00:45:27.549Z,94819.47
2019-05-07T00:47:56.015Z,94827.48
2019-05-07T00:50:29.159Z,94824.97
2019-05-07T00:52:57.768Z,94824.97
2019-05-07T00:55:26.401Z,94826.24
2019-05-07T00:57:55.101Z,94824.55
2019-05-07T01:00:23.779Z,94816.95
2019-05-07T01:02:52.675Z,94821.57
2019-05-07T01:05:23.101Z,94818.22
2019-05-07T01:07:52.881Z,94813.95
2019-05-07T01:10:22.362Z,94806.35
2019-05-07T01:12:53.100Z,94804.69
2019-05-07T01:15:31.178Z,94811.86
2019-05-07T01:17:53.276Z,94813.13
2019-05-07T01:20:22.203Z,94815.66
2019-05-07T01:22:54.526Z,94819.05
2019-05-07T01:25:22.842Z,94823.70
2019-05-07T01:27:53.274Z,94831.72
2019-05-07T01:30:23.092Z,94828.35
2019-05-07T01:33:02.900Z,94830.44
2019-05-07T01:35:33.210Z,94830.03
2019-05-07T01:38:03.161Z,94824.52
2019-05-07T01:40:32.436Z,94835.95
2019-05-07T01:43:02.582Z,94835.52
2019-05-07T01:45:43.214Z,94838.47
2019-05-07T01:48:04.215Z,94841.44
2019-05-07T01:50:32.323Z,94835.94
2019-05-07T01:53:00.952Z,94844.81
2019-05-07T01:55:29.427Z,94833.40
2019-05-07T01:57:58.153Z,94841.00
2019-05-07T02:00:26.826Z,94848.63
2019-05-07T02:02:56.935Z,94854.52
2019-05-07T02:05:43.494Z,94851.59
2019-05-07T02:08:13.604Z,94852.84
2019-05-07T02:11:02.247Z,94853.28
2019-05-07T02:13:30.878Z,94852.84
2019-05-07T02:16:01.863Z,94857.48
2019-05-07T02:18:32.581Z,94858.32
2019-05-07T02:21:03.273Z,94859.16
2019-05-07T02:23:33.004Z,94852.41
2019-05-07T02:26:02.555Z,94849.45
2019-05-07T02:28:32.924Z,94857.08
2019-05-07T02:31:04.133Z,94856.64
2019-05-07T02:33:34.846Z,94855.79
2019-05-07T02:36:02.995Z,94846.52
2019-05-07T02:38:35.993Z,94850.73
2019-05-07T02:41:14.218Z,94848.63
2019-05-07T02:43:43.142Z,94849.45
2019-05-07T02:46:31.942Z,94851.59
2019-05-07T02:49:03.144Z,94854.11
2019-05-07T02:51:33.821Z,94861.30
2019-05-07T02:54:13.228Z,94853.25
2019-05-07T02:56:43.233Z,94861.28
2019-05-07T02:59:13.729Z,94863.40
2019-05-07T03:01:43.276Z,94863.83
2019-05-07T03:04:12.952Z,94863.41
2019-05-07T03:06:44.174Z,94862.11
2019-05-07T03:09:14.555Z,94862.54
2019-05-07T03:11:43.593Z,94860.02
2019-05-07T03:14:13.923Z,94859.98
2019-05-07T03:19:13.298Z,94860.42
2019-05-07T03:21:55.348Z,94866.32
2019-05-07T03:24:29.749Z,94868.86
2019-05-07T03:27:02.858Z,94865.06
2019-05-07T03:29:32.998Z,94866.31
2019-05-07T03:32:18.177Z,94865.88
2019-05-07T03:34:48.459Z,94868.02
2019-05-07T03:37:18.644Z,94870.97
2019-05-07T03:39:47.265Z,94872.22
2019-05-07T03:42:15.835Z,94873.05
2019-05-07T03:44:53.666Z,94878.13
2019-05-07T03:47:29.314Z,94874.33
2019-05-07T03:49:57.915Z,94879.80
2019-05-07T03:52:26.476Z,94881.07
2019-05-07T03:54:55.012Z,94890.35
2019-05-07T03:57:24.013Z,94883.16
2019-05-07T03:59:54.229Z,94902.60
2019-05-07T04:02:23.820Z,94893.70
2019-05-07T04:04:53.123Z,94901.30
2019-05-07T04:07:23.504Z,94896.27
2019-05-07T04:09:53.486Z,94902.19
2019-05-07T04:12:23.946Z,94900.89
2019-05-07T04:14:54.531Z,94909.33
2019-05-07T04:17:26.669Z,94911.45
2019-05-07T04:19:53.470Z,94911.04
2019-05-07T04:22:26.444Z,94913.16
2019-05-07T04:24:54.746Z,94912.32
2019-05-07T04:27:36.738Z,94913.19
2019-05-07T04:30:08.514Z,94915.30
2019-05-07T04:32:38.730Z,94919.13
2019-05-07T04:35:09.178Z,94909.44
2019-05-07T04:37:37.658Z,94911.13
2019-05-07T04:40:06.774Z,94915.78
2019-05-07T04:42:35.342Z,94915.41
2019-05-07T04:45:06.051Z,94908.23
2019-05-07T04:47:43.258Z,94904.83
2019-05-07T04:50:13.651Z,94917.53
2019-05-07T04:52:43.681Z,94912.88
2019-05-07T04:55:13.811Z,94914.13
2019-05-07T04:57:43.855Z,94908.17
2019-05-07T05:00:13.582Z,94919.16
2019-05-07T05:02:56.096Z,94915.30
2019-05-07T05:05:25.467Z,94917.81
2019-05-07T05:07:54.005Z,94913.55
2019-05-07T05:10:23.225Z,94916.50
2019-05-07T05:12:53.697Z,94925.33
2019-05-07T05:15:22.643Z,94936.38
2019-05-07T05:17:53.873Z,94921.11
2019-05-07T05:20:23.218Z,94934.66
2019-05-07T05:23:05.331Z,94929.58
2019-05-07T05:25:35.581Z,94940.59
2019-05-07T05:28:04.378Z,94924.45
2019-05-07T05:30:34.625Z,94932.08
2019-05-07T05:33:04.374Z,94929.52
2019-05-07T05:35:33.530Z,94921.45
2019-05-07T05:38:03.100Z,94926.90
2019-05-07T05:40:32.113Z,94928.52
2019-05-07T05:43:08.095Z,94943.72
2019-05-07T05:45:38.671Z,94927.22
2019-05-07T05:48:08.648Z,94923.48
2019-05-07T05:50:39.014Z,94921.32
2019-05-07T05:53:15.102Z,94941.23
2019-05-07T05:55:44.295Z,94938.17
2019-05-07T05:58:17.219Z,94939.35
2019-05-07T06:00:52.978Z,94922.34
2019-05-07T06:03:23.835Z,94942.20
2019-05-07T06:05:56.728Z,94924.78
2019-05-07T06:08:39.015Z,94917.89
2019-05-07T06:11:21.909Z,94925.23
2019-05-07T06:13:52.756Z,94927.14
2019-05-07T06:16:22.957Z,94928.67
2019-05-07T06:18:55.934Z,94924.73
2019-05-07T06:21:42.625Z,94945.67
2019-05-07T06:24:15.479Z,94944.05
2019-05-07T06:26:44.083Z,94937.42
2019-05-07T06:29:12.842Z,94943.08
2019-05-07T06:31:42.181Z,94932.48
2019-05-07T06:34:12.435Z,94933.80
2019-05-07T06:36:42.460Z,94934.42
2019-05-07T06:39:15.405Z,94928.77
2019-05-07T06:42:03.245Z,94935.47
2019-05-07T06:44:32.567Z,94936.23
2019-05-07T06:47:02.482Z,94953.03
2019-05-07T06:49:32.434Z,94942.45
2019-05-07T06:52:03.042Z,94950.09
2019-05-07T06:54:32.174Z,94947.91
2019-05-07T06:57:02.053Z,94948.46
2019-05-07T06:59:34.791Z,94943.17
2019-05-07T07:02:22.514Z,94948.81
2019-05-07T07:04:53.263Z,94953.09
2019-05-07T07:07:32.323Z,94954.67
2019-05-07T07:10:02.682Z,94961.24
2019-05-07T07:12:33.872Z,94954.09
2019-05-07T07:15:02.844Z,94964.44
2019-05-07T07:17:32.619Z,94957.28
2019-05-07T07:20:02.367Z,94965.31
2019-05-07T07:22:31.931Z,94979.31
2019-05-07T07:25:02.914Z,94972.81
2019-05-07T07:27:32.243Z,94977.16
2019-05-07T07:30:02.738Z,94969.49
2019-05-07T07:32:33.010Z,94981.42
2019-05-07T07:35:02.388Z,94986.94
2019-05-07T07:37:43.011Z,94991.52
2019-05-07T07:40:15.399Z,95004.50
2019-05-07T07:42:44.044Z,95001.92
2019-05-07T07:45:19.601Z,95001.03
2019-05-07T07:47:48.388Z,95004.39
2019-05-07T07:50:18.567Z,95007.24
2019-05-07T07:52:47.160Z,94995.81
2019-05-07T07:55:17.940Z,95009.80
2019-05-07T07:57:52.086Z,95015.56
2019-05-07T08:00:23.372Z,95004.90
2019-05-07T08:02:56.775Z,95005.66
2019-05-07T08:05:25.248Z,95010.77
2019-05-07T08:07:53.902Z,95007.70
2019-05-07T08:10:22.465Z,95006.30
2019-05-07T08:12:52.583Z,95010.77
2019-05-07T08:15:24.464Z,95014.59
2019-05-07T08:17:52.232Z,95012.16
2019-05-07T08:20:22.272Z,95034.59
2019-05-07T08:22:52.635Z,95028.24
2019-05-07T08:25:23.243Z,95013.84
2019-05-07T08:27:52.455Z,95034.64
2019-05-07T08:30:23.408Z,95030.48
2019-05-07T08:32:56.456Z,95029.08
2019-05-07T08:35:26.705Z,95041.45
2019-05-07T08:37:55.272Z,95028.19
2019-05-07T08:40:23.802Z,95047.41
2019-05-07T08:42:53.115Z,95041.70
2019-05-07T08:45:39.693Z,95054.91
2019-05-07T08:48:12.480Z,95035.27
2019-05-07T08:50:41.914Z,95049.50
2019-05-07T08:53:13.040Z,95043.69
2019-05-07T08:55:42.453Z,95041.98
2019-05-07T08:58:12.053Z,95035.53
2019-05-07T09:00:41.808Z,95030.00
2019-05-07T09:03:20.060Z,95028.17
2019-05-07T09:05:42.631Z,95027.91
2019-05-07T09:08:12.870Z,95032.95
2019-05-07T09:10:42.293Z,95043.36
2019-05-07T09:13:12.584Z,95031.81
2019-05-07T09:15:42.510Z,95025.70
2019-05-07T09:18:12.374Z,95025.19
2019-05-07T09:20:42.543Z,95025.05
2019-05-07T09:23:12.239Z,95030.19
2019-05-07T09:25:42.646Z,95032.40
2019-05-07T09:28:11.877Z,95032.37
2019-05-07T09:30:58.717Z,95033.86
2019-05-07T09:33:28.965Z,95045.63
2019-05-07T09:35:57.523Z,95046.59
2019-05-07T09:38:26.125Z,95047.14
2019-05-07T09:40:57.011Z,95051.12
2019-05-07T09:43:25.281Z,95054.64
2019-05-07T09:45:53.874Z,95056.97
2019-05-07T09:48:22.483Z,95064.88
2019-05-07T09:50:53.017Z,95058.75
2019-05-07T09:53:22.820Z,95067.76
2019-05-07T09:55:51.699Z,95066.50
2019-05-07T09:58:34.860Z,95065.66
2019-05-07T10:00:51.978Z,95066.49
2019-05-07T10:03:22.678Z,95066.48
2019-05-07T10:05:52.708Z,95060.58
2019-05-07T10:08:21.553Z,95056.98
2019-05-07T10:10:53.085Z,95038.78
2019-05-07T10:13:25.168Z,95065.67
2019-05-07T10:15:53.770Z,95058.94
2019-05-07T10:18:22.873Z,95051.34
2019-05-07T10:20:52.235Z,95051.91
2019-05-07T10:23:22.971Z,95055.69
2019-05-07T10:25:52.804Z,95059.13
2019-05-07T10:28:22.756Z,95047.73
2019-05-07T10:30:52.269Z,95058.99
2019-05-07T10:33:22.900Z,95061.41
2019-05-07T10:35:52.919Z,95065.00
2019-05-07T10:38:22.216Z,95066.86
2019-05-07T10:40:53.616Z,95068.06
2019-05-07T10:43:23.140Z,95056.99
2019-05-07T10:45:53.690Z,95047.70
2019-05-07T10:48:31.880Z,95049.10
2019-05-07T10:51:08.888Z,95044.53
2019-05-07T10:53:37.524Z,95055.19
2019-05-07T10:56:06.129Z,95038.56
2019-05-07T10:58:34.745Z,95035.45
2019-05-07T11:01:03.408Z,95045.91
2019-05-07T11:03:32.535Z,95047.73
2019-05-07T11:06:01.323Z,95051.87
2019-05-07T11:08:30.003Z,95062.75
2019-05-07T11:10:58.557Z,95076.63
2019-05-07T11:13:27.177Z,95072.55
2019-05-07T11:16:03.468Z,95079.95
2019-05-07T11:18:39.489Z,95070.33
2019-05-07T11:21:08.099Z,95072.77
2019-05-07T11:23:36.683Z,95068.11
2019-05-07T11:26:05.305Z,95071.33
2019-05-07T11:28:33.907Z,95066.49
2019-05-07T11:31:02.540Z,95056.43
2019-05-07T11:33:32.603Z,95051.35
2019-05-07T11:36:02.104Z,95049.74
2019-05-07T11:38:33.125Z,95053.58
2019-05-07T11:41:02.302Z,95057.61
2019-05-07T11:43:48.123Z,95056.98
2019-05-07T11:46:34.841Z,95047.27
2019-05-07T11:49:14.035Z,95062.59
2019-05-07T11:51:44.277Z,95055.77
2019-05-07T11:54:16.031Z,95061.95
2019-05-07T11:56:44.642Z,95075.41
2019-05-07T11:59:13.626Z,95082.52
2019-05-07T12:01:47.447Z,95074.59
2019-05-07T12:04:17.429Z,95081.56
2019-05-07T12:06:46.036Z,95086.08
2019-05-07T12:09:14.578Z,95092.91
2019-05-07T12:11:43.277Z,95085.31
2019-05-07T12:14:12.357Z,95090.03
2019-05-07T12:16:42.534Z,95095.17
2019-05-07T12:19:13.024Z,95090.97
2019-05-07T12:21:42.324Z,95093.47
2019-05-07T12:24:12.547Z,95092.91
2019-05-07T12:26:42.900Z,95091.89
2019-05-07T12:29:11.944Z,95093.43
2019-05-07T12:31:42.597Z,95089.09
2019-05-07T12:34:19.373Z,95079.11
2019-05-07T12:36:47.914Z,95077.41
2019-05-07T12:39:16.578Z,95071.72
2019-05-07T12:41:45.210Z,95065.55
2019-05-07T12:44:13.817Z,95059.59
2019-05-07T12:46:42.584Z,95056.13
2019-05-07T12:49:11.958Z,95065.91
2019-05-07T12:51:51.684Z,95071.94
2019-05-07T12:54:22.706Z,95085.02
2019-05-07T12:56:52.073Z,95085.65
2019-05-07T12:59:21.898Z,95095.09
2019-05-07T13:01:58.734Z,95095.16
2019-05-07T13:04:32.510Z,95090.63
2019-05-07T13:07:03.099Z,95088.50
2019-05-07T13:09:32.501Z,95090.61
2019-05-07T13:12:03.056Z,95093.11
2019-05-07T13:14:31.558Z,95087.44
2019-05-07T13:17:00.162Z,95082.97
2019-05-07T13:19:28.905Z,95085.44
2019-05-07T13:21:57.646Z,95084.92
2019-05-07T13:24:26.247Z,95088.77
2019-05-07T13:26:54.822Z,95084.02
2019-05-07T13:29:23.428Z,95087.35
2019-05-07T13:31:55.002Z,95092.33
2019-05-07T13:34:23.867Z,95088.11
2019-05-07T13:36:57.402Z,95091.19
2019-05-07T13:39:32.525Z,95082.25
2019-05-07T13:42:05.878Z,95083.45
2019-05-07T13:44:36.459Z,95080.23
2019-05-07T13:47:22.861Z,95083.19
2019-05-07T13:49:53.738Z,95081.39
2019-05-07T13:52:24.108Z,95081.03
2019-05-07T13:54:53.741Z,95077.13
2019-05-07T13:57:23.371Z,95078.61
2019-05-07T13:59:53.043Z,95081.25
2019-05-07T14:02:24.245Z,95084.20
2019-05-07T14:04:53.468Z,95082.91
2019-05-07T14:07:22.836Z,95084.95
2019-05-07T14:09:52.702Z,95084.13
2019-05-07T14:12:22.925Z,95091.05
2019-05-07T14:14:53.048Z,95086.44
2019-05-07T14:17:22.092Z,95083.95
2019-05-07T14:19:52.878Z,95083.09
2019-05-07T14:22:22.597Z,95083.89
2019-05-07T14:24:53.111Z,95087.88
2019-05-07T14:27:22.008Z,95092.55
2019-05-07T14:29:52.086Z,95091.03
2019-05-07T14:32:28.818Z,95092.00
2019-05-07T14:35:05.058Z,95092.16
2019-05-07T14:37:35.302Z,95091.39
2019-05-07T14:40:05.730Z,95092.27
2019-05-07T14:42:45.249Z,95092.67
2019-05-07T14:45:15.081Z,95100.34
2019-05-07T14:47:46.024Z,95107.63
2019-05-07T14:50:15.339Z,95094.09
2019-05-07T14:52:43.948Z,95109.45
2019-05-07T14:55:13.234Z,95104.42
2019-05-07T14:57:42.194Z,95106.15
2019-05-07T15:00:12.212Z,95108.33
2019-05-07T15:02:42.127Z,95108.37
2019-05-07T15:05:11.985Z,95116.11
2019-05-07T15:07:42.211Z,95114.87
2019-05-07T15:10:11.031Z,95115.27
2019-05-07T15:12:39.641Z,95113.11
2019-05-07T15:15:08.861Z,95117.38
2019-05-07T15:17:42.133Z,95116.53
2019-05-07T15:20:11.423Z,95117.33
2019-05-07T15:22:49.061Z,95113.94
2019-05-07T15:25:14.507Z,95116.03
2019-05-07T15:27:45.397Z,95114.71
2019-05-07T15:30:14.706Z,95110.03
2019-05-07T15:32:43.316Z,95113.76
2019-05-07T15:35:12.682Z,95114.52
2019-05-07T15:37:42.733Z,95109.33
2019-05-07T15:40:11.946Z,95114.33
2019-05-07T15:42:42.132Z,95108.75
2019-05-07T15:45:12.513Z,95105.29
2019-05-07T15:47:43.327Z,95111.69
2019-05-07T15:50:12.548Z,95109.95
2019-05-07T15:52:43.395Z,95113.73
2019-05-07T15:55:12.027Z,95118.41
2019-05-07T15:57:42.673Z,95113.27
2019-05-07T16:00:14.083Z,95109.84
2019-05-07T16:02:45.379Z,95107.80
2019-05-07T16:05:15.031Z,95113.80
2019-05-07T16:07:45.209Z,95112.54
2019-05-07T16:10:15.163Z,95112.58
2019-05-07T16:12:44.380Z,95107.95
2019-05-07T16:15:13.903Z,95118.21
2019-05-07T16:17:52.159Z,95119.12
2019-05-07T16:20:22.700Z,95121.28
2019-05-07T16:23:13.937Z,95132.84
2019-05-07T16:25:33.422Z,95135.45
2019-05-07T16:28:04.745Z,95133.36
2019-05-07T16:30:32.553Z,95143.13
2019-05-07T16:33:02.148Z,95135.47
2019-05-07T16:35:32.003Z,95140.63
2019-05-07T16:38:00.968Z,95141.92
2019-05-07T16:40:29.571Z,95148.36
2019-05-07T16:42:58.180Z,95144.52
2019-05-07T16:45:26.797Z,95155.17
2019-05-07T16:47:55.326Z,95157.06
2019-05-07T16:50:23.923Z,95156.30
2019-05-07T16:52:52.649Z,95160.23
2019-05-07T16:55:23.145Z,95157.72
2019-05-07T16:57:58.829Z,95158.17
2019-05-07T17:00:38.125Z,95160.78
2019-05-07T17:03:08.387Z,95165.48
2019-05-07T17:05:37.003Z,95164.22
2019-05-07T17:08:07.247Z,95170.20
2019-05-07T17:10:36.012Z,95171.47
2019-05-07T17:13:04.644Z,95174.03
2019-05-07T17:15:37.629Z,95172.36
2019-05-07T17:18:06.239Z,95179.17
2019-05-07T17:20:34.902Z,95177.06
2019-05-07T17:23:03.490Z,95174.95
2019-05-07T17:25:37.788Z,95177.11
2019-05-07T17:28:08.295Z,95180.95
2019-05-07T17:30:38.126Z,95180.98
2019-05-07T17:33:07.056Z,95179.75
2019-05-07T17:35:35.614Z,95183.14
2019-05-07T17:38:07.224Z,95183.19
2019-05-07T17:40:34.885Z,95187.89
2019-05-07T17:43:03.554Z,95189.13
2019-05-07T17:45:32.927Z,95192.96
2019-05-07T17:48:03.161Z,95193.00
2019-05-07T17:50:49.460Z,95194.28
2019-05-07T17:53:18.076Z,95195.59
2019-05-07T17:55:46.642Z,95200.30
2019-05-07T17:58:15.236Z,95203.72
2019-05-07T18:00:46.287Z,95207.14
2019-05-07T18:03:22.555Z,95213.12
2019-05-07T18:05:51.933Z,95210.16
2019-05-07T18:08:21.753Z,95216.54
2019-05-07T18:10:50.505Z,95212.75
2019-05-07T18:13:19.039Z,95217.41
2019-05-07T18:15:47.674Z,95220.44
2019-05-07T18:18:16.895Z,95223.42
2019-05-07T18:20:45.532Z,95228.95
2019-05-07T18:23:16.830Z,95231.94
2019-05-07T18:25:44.581Z,95232.38
2019-05-07T18:28:13.184Z,95232.81
2019-05-07T18:30:41.804Z,95235.39
2019-05-07T18:33:15.046Z,95231.16
2019-05-07T18:35:46.161Z,95234.11
2019-05-07T18:38:14.775Z,95242.63
2019-05-07T18:40:43.375Z,95240.52
2019-05-07T18:43:12.358Z,95241.38
2019-05-07T18:45:41.130Z,95243.52
2019-05-07T18:48:11.766Z,95249.46
2019-05-07T18:50:41.959Z,95243.55
2019-05-07T18:53:12.176Z,95255.02
2019-05-07T18:55:42.355Z,95252.91
2019-05-07T18:58:13.187Z,95257.56
2019-05-07T19:00:43.285Z,95252.49
2019-05-07T19:03:11.901Z,95256.75
2019-05-07T19:05:42.451Z,95261.87
2019-05-07T19:08:12.607Z,95262.30
2019-05-07T19:10:42.893Z,95259.34
2019-05-07T19:13:11.902Z,95261.89
2019-05-07T19:15:42.002Z,95261.48
2019-05-07T19:18:12.047Z,95259.77
2019-05-07T19:20:42.166Z,95257.69
2019-05-07T19:23:10.902Z,95258.09
2019-05-07T19:25:41.555Z,95264.89
2019-05-07T19:28:12.763Z,95251.35
2019-05-07T19:30:42.022Z,95257.70
2019-05-07T19:33:12.332Z,95258.98
2019-05-07T19:35:41.854Z,95257.27
2019-05-07T19:38:10.796Z,95255.59
2019-05-07T19:40:39.395Z,95257.70
2019-05-07T19:43:08.067Z,95256.02
2019-05-07T19:45:36.577Z,95259.84
2019-05-07T19:48:05.417Z,95264.09
2019-05-07T19:50:34.024Z,95268.34
2019-05-07T19:53:03.002Z,95267.50
2019-05-07T19:55:33.398Z,95269.17
2019-05-07T19:58:03.647Z,95270.88
2019-05-07T20:00:32.779Z,95270.91
2019-05-07T20:03:03.384Z,95275.99
2019-05-07T20:05:32.727Z,95278.13
2019-05-07T20:08:04.470Z,95278.97
2019-05-07T20:10:33.675Z,95281.54
2019-05-07T20:13:03.136Z,95279.85
2019-05-07T20:15:32.710Z,95278.57
2019-05-07T20:18:03.145Z,95280.27
2019-05-07T20:20:33.142Z,95283.24
2019-05-07T20:23:02.584Z,95282.42
2019-05-07T20:25:33.204Z,95280.75
2019-05-07T20:28:02.261Z,95284.98
2019-05-07T20:30:32.482Z,95287.97
2019-05-07T20:33:03.070Z,95286.30
2019-05-07T20:35:32.545Z,95293.08
2019-05-07T20:38:02.943Z,95296.48
2019-05-07T20:40:32.470Z,95295.22
2019-05-07T20:43:01.918Z,95292.69
2019-05-07T20:45:32.060Z,95294.38
2019-05-07T20:48:02.525Z,95302.43
2019-05-07T20:50:33.239Z,95298.61
2019-05-07T20:53:02.216Z,95301.58
2019-05-07T20:55:35.286Z,95307.92
2019-05-07T20:58:03.964Z,95312.14
2019-05-07T21:00:32.775Z,95312.57
2019-05-07T21:03:19.016Z,95311.69
2019-05-07T21:05:53.133Z,95318.47
2019-05-07T21:08:22.681Z,95318.45
2019-05-07T21:10:53.536Z,95317.10
2019-05-07T21:13:28.474Z,95320.06
2019-05-07T21:15:53.040Z,95322.14
2019-05-07T21:18:23.354Z,95323.80
2019-05-07T21:20:52.908Z,95327.58
2019-05-07T21:23:23.126Z,95328.37
2019-05-07T21:25:52.831Z,95329.61
2019-05-07T21:28:21.896Z,95327.89
2019-05-07T21:30:52.157Z,95325.70
2019-05-07T21:33:22.951Z,95328.62
2019-05-07T21:35:53.061Z,95329.81
2019-05-07T21:38:22.390Z,95334.86
2019-05-07T21:40:51.519Z,95335.63
2019-05-07T21:43:22.138Z,95340.23
2019-05-07T21:45:52.995Z,95341.89
2019-05-07T21:48:22.294Z,95343.07
2019-05-07T21:50:52.005Z,95346.86
2019-05-07T21:53:32.423Z,95346.44
2019-05-07T21:56:05.439Z,95345.51
2019-05-07T21:58:47.009Z,95353.08
2019-05-07T22:01:17.503Z,95355.12
2019-05-07T22:03:48.053Z,95352.09
2019-05-07T22:06:16.665Z,95353.73
2019-05-07T22:08:45.298Z,95356.67
2019-05-07T22:11:14.004Z,95351.95
2019-05-07T22:13:43.570Z,95356.12
2019-05-07T22:16:12.965Z,95351.47
2019-05-07T22:18:42.759Z,95359.47
2019-05-07T22:21:12.459Z,95353.52
2019-05-07T22:23:42.776Z,95355.59
2019-05-07T22:26:20.192Z,95351.37
2019-05-07T22:28:42.293Z,95348.39
2019-05-07T22:31:18.350Z,95348.78
2019-05-07T22:33:52.807Z,95347.95
2019-05-07T22:36:22.101Z,95348.76
2019-05-07T22:38:52.670Z,95344.13
2019-05-07T22:41:22.456Z,95348.77
2019-05-07T22:43:51.211Z,95352.06
2019-05-07T22:46:22.098Z,95352.53
2019-05-07T22:48:50.155Z,95349.58
2019-05-07T22:51:19.012Z,95348.32
2019-05-07T22:53:47.544Z,95350.43
2019-05-07T22:56:16.423Z,95357.19
2019-05-07T22:58:46.550Z,95355.41
2019-05-07T23:01:16.702Z,95349.01
2019-05-07T23:03:45.303Z,95348.53
2019-05-07T23:06:13.919Z,95351.37
2019-05-07T23:08:44.053Z,95354.67
2019-05-07T23:11:12.664Z,95346.97
2019-05-07T23:13:42.676Z,95353.63
2019-05-07T23:16:12.604Z,95355.67
2019-05-07T23:18:42.893Z,95358.17
2019-05-07T23:21:11.816Z,95356.04
2019-05-07T23:23:42.219Z,95358.12
2019-05-07T23:26:12.264Z,95362.27
2019-05-07T23:28:41.900Z,95359.72
2019-05-07T23:31:12.133Z,95362.15
2019-05-07T23:33:40.926Z,95360.01
2019-05-07T23:36:09.539Z,95352.78
2019-05-07T23:38:38.092Z,95354.89
2019-05-07T23:41:08.336Z,95356.51
2019-05-07T23:43:37.018Z,95363.22
2019-05-07T23:46:05.649Z,95365.33
2019-05-07T23:48:34.291Z,95373.37
2019-05-07T23:51:02.771Z,95366.20
2019-05-07T23:53:31.361Z,95366.53
2019-05-07T23:55:59.972Z,95366.07
2019-05-07T23:58:28.495Z,95363.41
